createdAt,value
2022-11-24T00:02:35.616Z,23.70
2022-11-24T00:07:02.629Z,21.50
2022-11-24T00:11:09.731Z,18.30
2022-11-24T00:15:27.289Z,15.70
2022-11-24T00:19:29.252Z,19.47
2022-11-24T00:23:31.136Z,17.07
2022-11-24T00:27:33.060Z,18.13
2022-11-24T00:31:40.100Z,18.33
2022-11-24T00:35:42.004Z,19.17
2022-11-24T00:39:43.991Z,18.13
2022-11-24T00:43:45.872Z,18.33
2022-11-24T00:47:52.032Z,16.27
2022-11-24T00:51:56.972Z,17.30
2022-11-24T00:56:03.933Z,20.70
2022-11-24T01:00:06.843Z,16.03
2022-11-24T01:04:08.946Z,17.07
2022-11-24T01:08:11.136Z,16.80
2022-11-24T01:12:13.004Z,15.73
2022-11-24T01:16:41.224Z,18.57
2022-11-24T01:20:43.171Z,17.20
2022-11-24T01:24:45.837Z,14.10
2022-11-24T01:28:48.128Z,14.50
2022-11-24T01:32:50.192Z,15.57
2022-11-24T01:36:52.066Z,12.93
2022-11-24T01:41:13.388Z,14.80
2022-11-24T01:45:45.818Z,13.13
2022-11-24T01:49:53.692Z,15.00
2022-11-24T01:54:03.095Z,14.83
2022-11-24T01:58:15.917Z,11.70
2022-11-24T02:02:18.182Z,10.87
2022-11-24T02:06:27.174Z,12.53
2022-11-24T02:10:29.053Z,14.57
2022-11-24T02:14:31.073Z,16.73
2022-11-24T02:18:33.051Z,16.37
2022-11-24T02:22:44.843Z,15.83
2022-11-24T02:26:50.055Z,13.13
2022-11-24T02:30:52.251Z,16.53
2022-11-24T02:35:02.641Z,15.17
2022-11-24T02:39:15.028Z,13.30
2022-11-24T02:43:20.933Z,14.43
2022-11-24T02:47:23.162Z,13.87
2022-11-24T02:51:25.067Z,11.60
2022-11-24T02:55:26.886Z,14.90
2022-11-24T02:59:28.759Z,11.97
2022-11-24T03:03:37.135Z,13.67
2022-11-24T03:07:45.885Z,11.13
2022-11-24T03:11:54.142Z,11.73
2022-11-24T03:16:02.159Z,10.23
2022-11-24T03:20:11.121Z,17.03
2022-11-24T03:24:13.011Z,11.93
2022-11-24T03:28:14.999Z,16.93
2022-11-24T03:32:17.017Z,12.57
2022-11-24T03:36:19.136Z,14.80
2022-11-24T03:40:21.081Z,11.33
2022-11-24T03:44:23.758Z,11.03
2022-11-24T03:48:25.968Z,15.03
2022-11-24T03:52:27.785Z,14.87
2022-11-24T03:56:30.825Z,16.37
2022-11-24T04:00:35.100Z,15.17
2022-11-24T04:04:37.164Z,17.10
2022-11-24T04:08:39.060Z,16.10
2022-11-24T04:12:43.959Z,16.57
2022-11-24T04:16:45.803Z,13.37
2022-11-24T04:20:50.485Z,17.30
2022-11-24T04:24:52.352Z,15.40
2022-11-24T04:28:54.216Z,20.13
2022-11-24T04:32:57.058Z,18.70
2022-11-24T04:36:58.994Z,16.10
2022-11-24T04:41:04.136Z,15.63
2022-11-24T04:45:07.261Z,15.43
2022-11-24T04:49:11.968Z,13.30
2022-11-24T04:53:15.312Z,18.30
2022-11-24T04:57:22.205Z,19.33
2022-11-24T05:01:26.719Z,20.00
2022-11-24T05:05:28.769Z,19.17
2022-11-24T05:09:48.223Z,18.20
2022-11-24T05:13:56.393Z,16.13
2022-11-24T05:17:58.496Z,18.47
2022-11-24T05:22:00.377Z,13.20
2022-11-24T05:26:02.503Z,12.67
2022-11-24T05:30:05.279Z,13.90
2022-11-24T05:34:07.410Z,16.30
2022-11-24T05:38:09.432Z,15.83
2022-11-24T05:42:49.887Z,15.43
2022-11-24T05:46:51.869Z,14.70
2022-11-24T05:50:56.295Z,14.40
2022-11-24T05:54:58.236Z,13.20
2022-11-24T05:59:01.496Z,13.17
2022-11-24T06:03:08.950Z,11.63
2022-11-24T06:07:12.067Z,13.07
2022-11-24T06:11:20.130Z,13.97
2022-11-24T06:15:29.550Z,19.43
2022-11-24T06:20:32.684Z,14.87
2022-11-24T06:24:35.681Z,16.07
2022-11-24T06:28:37.898Z,12.80
2022-11-24T06:32:49.086Z,15.30
2022-11-24T06:36:52.367Z,14.53
2022-11-24T06:41:08.954Z,14.53
2022-11-24T06:45:11.226Z,18.47
2022-11-24T06:49:13.289Z,15.40
2022-11-24T06:53:15.566Z,14.27
2022-11-24T07:37:29.651Z,17.60
2022-11-24T07:41:33.098Z,21.13
2022-11-24T07:45:35.159Z,18.50
2022-11-24T07:49:37.164Z,18.23
2022-11-24T07:53:39.190Z,15.27
2022-11-24T07:57:41.242Z,15.83
2022-11-24T08:01:43.261Z,15.60
2022-11-24T08:06:22.181Z,14.53
2022-11-24T08:10:16.955Z,17.03
2022-11-24T08:14:18.857Z,13.23
2022-11-24T08:19:21.285Z,14.90
2022-11-24T08:24:19.857Z,15.27
2022-11-24T08:28:52.118Z,12.67
2022-11-24T08:55:12.126Z,13.93
2022-11-24T08:59:14.585Z,13.57
2022-11-24T09:03:16.550Z,14.63
2022-11-24T09:12:25.287Z,12.90
2022-11-24T09:37:56.516Z,13.10
2022-11-24T09:42:12.855Z,12.53
2022-11-24T10:55:22.442Z,15.30
2022-11-24T11:01:07.435Z,15.53
2022-11-24T13:47:03.304Z,17.73
2022-11-24T13:58:51.273Z,21.17
2022-11-24T14:03:15.166Z,21.17
2022-11-24T14:08:10.011Z,23.97
2022-11-24T14:12:15.951Z,26.50
2022-11-24T14:16:22.466Z,22.50
2022-11-24T14:20:26.693Z,23.37
2022-11-24T14:24:43.962Z,26.07
2022-11-24T14:29:08.942Z,28.40
2022-11-24T14:33:15.924Z,29.13
2022-11-24T14:37:19.386Z,27.57
2022-11-24T14:41:31.696Z,31.17
2022-11-24T14:46:24.484Z,31.63
2022-11-24T14:51:23.092Z,28.93
2022-11-24T14:55:30.160Z,31.77
2022-11-24T14:59:34.820Z,34.03
2022-11-24T15:03:49.427Z,27.37
2022-11-24T15:08:02.914Z,30.67
2022-11-24T15:12:10.129Z,25.63
2022-11-24T15:16:19.248Z,28.10
2022-11-24T15:20:37.462Z,25.10
2022-11-24T15:24:54.033Z,22.80
2022-11-24T15:28:58.593Z,27.43
2022-11-24T15:33:00.444Z,36.87
2022-11-24T15:37:02.370Z,31.40
2022-11-24T15:41:21.880Z,27.47
2022-11-24T15:45:26.303Z,29.10
2022-11-24T15:49:28.246Z,32.83
2022-11-24T15:53:51.726Z,27.00
2022-11-24T15:57:56.068Z,30.03
2022-11-24T16:03:38.229Z,30.17
2022-11-24T16:07:27.581Z,33.47
2022-11-24T16:11:29.759Z,30.07
2022-11-24T16:15:32.892Z,28.27
2022-11-24T16:19:38.736Z,29.33
2022-11-24T16:23:43.824Z,31.03
2022-11-24T16:27:51.848Z,28.20
2022-11-24T16:32:06.512Z,32.40
2022-11-24T16:36:11.144Z,32.83
2022-11-24T16:40:13.475Z,32.10
2022-11-24T16:44:15.342Z,28.90
2022-11-24T16:48:17.386Z,33.77
2022-11-24T16:52:19.486Z,35.67
2022-11-24T16:56:21.383Z,29.93
2022-11-24T17:00:23.680Z,32.70
2022-11-24T17:04:25.690Z,37.83
2022-11-24T17:08:30.820Z,42.23
2022-11-24T17:12:35.322Z,33.40
2022-11-24T17:16:40.486Z,28.37
2022-11-24T17:20:43.617Z,31.03
2022-11-24T17:24:59.217Z,34.40
2022-11-24T17:29:33.442Z,30.83
2022-11-24T17:33:37.545Z,31.00
2022-11-24T17:37:47.604Z,33.43
2022-11-24T17:47:38.324Z,27.83
2022-11-24T17:51:43.237Z,34.60
2022-11-24T17:56:09.740Z,33.73
2022-11-24T18:06:11.863Z,35.87
2022-11-24T18:11:23.573Z,33.53
2022-11-24T18:20:47.947Z,31.10
2022-11-24T18:29:43.067Z,37.17
2022-11-24T18:33:58.197Z,31.50
2022-11-24T18:38:09.058Z,37.13
2022-11-24T18:42:26.170Z,37.83
2022-11-24T18:46:31.435Z,40.13
2022-11-24T18:55:41.127Z,43.90
2022-11-24T18:59:44.439Z,33.37
2022-11-24T19:04:15.550Z,41.63
2022-11-24T19:13:11.976Z,39.27
2022-11-24T19:17:17.126Z,37.27
2022-11-24T19:21:54.529Z,37.87
2022-11-24T19:26:54.513Z,38.47
2022-11-24T19:31:39.826Z,38.47
2022-11-24T19:36:13.409Z,37.33
2022-11-24T19:41:37.320Z,34.13
2022-11-24T19:46:10.445Z,34.90
2022-11-24T19:50:37.636Z,31.43
2022-11-24T19:54:59.814Z,38.80
2022-11-24T19:59:06.446Z,42.70
2022-11-24T20:07:31.966Z,43.97
2022-11-24T20:11:53.865Z,38.93
2022-11-24T20:26:41.399Z,33.47
2022-11-24T20:30:49.856Z,30.83
2022-11-24T20:40:05.469Z,46.47
2022-11-24T20:50:33.571Z,38.47
2022-11-24T20:54:34.318Z,34.07
2022-11-24T20:58:50.179Z,34.00
2022-11-24T21:02:59.982Z,45.97
2022-11-24T21:07:17.889Z,37.83
2022-11-24T21:26:58.879Z,40.80
2022-11-24T21:45:52.452Z,28.83
2022-11-24T21:50:07.799Z,28.47
2022-11-24T21:54:13.402Z,24.93
2022-11-24T21:58:35.472Z,28.73
2022-11-24T22:03:20.044Z,30.47
2022-11-24T22:07:27.450Z,27.10
2022-11-24T22:11:31.937Z,24.30
2022-11-24T22:15:34.357Z,23.83
2022-11-24T22:19:36.284Z,27.07
2022-11-24T22:23:38.446Z,26.93
2022-11-24T22:27:41.778Z,24.03
2022-11-24T22:31:43.912Z,26.97
2022-11-24T22:35:59.352Z,21.40
2022-11-24T22:40:01.315Z,23.43
2022-11-24T22:44:05.784Z,20.53
2022-11-24T22:48:07.706Z,15.77
2022-11-24T22:52:09.637Z,20.37
2022-11-24T22:56:15.137Z,17.47
2022-11-24T23:00:22.820Z,20.40
2022-11-24T23:04:27.253Z,13.67
2022-11-24T23:08:33.445Z,14.90
2022-11-24T23:12:37.366Z,10.20
2022-11-24T23:16:42.113Z,9.63
2022-11-24T23:20:44.611Z,9.23
2022-11-24T23:24:48.887Z,9.30
2022-11-24T23:28:51.121Z,7.87
2022-11-24T23:32:54.209Z,5.97
2022-11-24T23:36:59.850Z,6.37
2022-11-24T23:41:36.731Z,7.53
2022-11-24T23:45:38.715Z,7.00
2022-11-24T23:49:43.137Z,7.87
2022-11-24T23:53:48.242Z,7.60
2022-11-24T23:57:50.148Z,6.00
